sensor_id;sensor_type;location;lat;lon;timestamp;P1;durP1;ratioP1;P2;durP2;ratioP2
77012;SDS011;67260;53.130;17.982;2024-01-11T00:00:49;23.70;;;7.90;;
77012;SDS011;67260;53.130;17.982;2024-01-11T00:03:35;21.10;;;7.30;;
77012;SDS011;67260;53.130;17.982;2024-01-11T00:06:02;26.90;;;8.40;;
77012;SDS011;67260;53.130;17.982;2024-01-11T00:08:29;25.90;;;8.40;;
77012;SDS011;67260;53.130;17.982;2024-01-11T00:10:56;26.30;;;8.80;;
77012;SDS011;67260;53.130;17.982;2024-01-11T00:13:30;23.70;;;8.10;;
77012;SDS011;67260;53.130;17.982;2024-01-11T00:15:56;27.80;;;8.40;;
77012;SDS011;67260;53.130;17.982;2024-01-11T00:18:22;24.60;;;7.90;;
77012;SDS011;67260;53.130;17.982;2024-01-11T00:20:49;29.50;;;10.40;;
77012;SDS011;67260;53.130;17.982;2024-01-11T00:23:15;25.90;;;9.70;;
77012;SDS011;67260;53.130;17.982;2024-01-11T00:25:41;28.40;;;11.30;;
77012;SDS011;67260;53.130;17.982;2024-01-11T00:28:07;30.20;;;10.60;;
77012;SDS011;67260;53.130;17.982;2024-01-11T00:30:33;26.10;;;9.60;;
77012;SDS011;67260;53.130;17.982;2024-01-11T00:33:00;37.00;;;9.60;;
77012;SDS011;67260;53.130;17.982;2024-01-11T00:35:36;25.00;;;8.70;;
77012;SDS011;67260;53.130;17.982;2024-01-11T00:41:02;23.70;;;7.10;;
77012;SDS011;67260;53.130;17.982;2024-01-11T00:43:49;28.80;;;8.90;;
77012;SDS011;67260;53.130;17.982;2024-01-11T00:46:21;25.20;;;8.30;;
77012;SDS011;67260;53.130;17.982;2024-01-11T00:48:48;25.00;;;8.00;;
77012;SDS011;67260;53.130;17.982;2024-01-11T00:51:15;24.90;;;7.60;;
77012;SDS011;67260;53.130;17.982;2024-01-11T00:53:42;24.00;;;7.60;;
77012;SDS011;67260;53.130;17.982;2024-01-11T00:56:17;28.60;;;7.90;;
77012;SDS011;67260;53.130;17.982;2024-01-11T00:58:45;22.10;;;8.30;;
77012;SDS011;67260;53.130;17.982;2024-01-11T01:01:12;25.40;;;7.50;;
77012;SDS011;67260;53.130;17.982;2024-01-11T01:03:39;29.30;;;9.10;;
77012;SDS011;67260;53.130;17.982;2024-01-11T01:06:05;28.40;;;9.30;;
77012;SDS011;67260;53.130;17.982;2024-01-11T01:08:33;28.00;;;8.70;;
77012;SDS011;67260;53.130;17.982;2024-01-11T01:11:00;29.60;;;8.60;;
77012;SDS011;67260;53.130;17.982;2024-01-11T01:13:27;31.40;;;9.50;;
77012;SDS011;67260;53.130;17.982;2024-01-11T01:15:53;28.30;;;9.30;;
77012;SDS011;67260;53.130;17.982;2024-01-11T01:18:22;26.40;;;8.40;;
77012;SDS011;67260;53.130;17.982;2024-01-11T01:20:48;28.50;;;9.00;;
77012;SDS011;67260;53.130;17.982;2024-01-11T01:23:14;25.80;;;9.60;;
77012;SDS011;67260;53.130;17.982;2024-01-11T01:25:40;30.90;;;9.60;;
77012;SDS011;67260;53.130;17.982;2024-01-11T01:28:09;29.90;;;10.00;;
77012;SDS011;67260;53.130;17.982;2024-01-11T01:30:36;27.60;;;8.60;;
77012;SDS011;67260;53.130;17.982;2024-01-11T01:33:02;31.50;;;9.90;;
77012;SDS011;67260;53.130;17.982;2024-01-11T01:35:28;30.60;;;9.10;;
77012;SDS011;67260;53.130;17.982;2024-01-11T01:37:55;29.90;;;9.80;;
77012;SDS011;67260;53.130;17.982;2024-01-11T01:40:21;27.30;;;8.50;;
77012;SDS011;67260;53.130;17.982;2024-01-11T01:42:47;29.40;;;9.00;;
77012;SDS011;67260;53.130;17.982;2024-01-11T01:45:14;35.00;;;10.30;;
77012;SDS011;67260;53.130;17.982;2024-01-11T01:47:41;27.50;;;9.20;;
77012;SDS011;67260;53.130;17.982;2024-01-11T01:50:09;28.60;;;9.70;;
77012;SDS011;67260;53.130;17.982;2024-01-11T01:52:36;38.40;;;11.00;;
77012;SDS011;67260;53.130;17.982;2024-01-11T01:55:05;27.80;;;9.40;;
77012;SDS011;67260;53.130;17.982;2024-01-11T01:57:35;28.10;;;8.80;;
77012;SDS011;67260;53.130;17.982;2024-01-11T02:00:02;30.40;;;9.80;;
77012;SDS011;67260;53.130;17.982;2024-01-11T02:02:37;32.80;;;10.70;;
77012;SDS011;67260;53.130;17.982;2024-01-11T02:05:07;29.80;;;10.10;;
77012;SDS011;67260;53.130;17.982;2024-01-11T02:07:33;30.60;;;10.10;;
77012;SDS011;67260;53.130;17.982;2024-01-11T02:09:59;31.30;;;9.80;;
77012;SDS011;67260;53.130;17.982;2024-01-11T02:12:26;32.80;;;10.50;;
77012;SDS011;67260;53.130;17.982;2024-01-11T02:14:53;30.70;;;10.30;;
77012;SDS011;67260;53.130;17.982;2024-01-11T02:17:19;27.30;;;9.70;;
77012;SDS011;67260;53.130;17.982;2024-01-11T02:23:05;32.80;;;10.30;;
77012;SDS011;67260;53.130;17.982;2024-01-11T02:25:55;33.60;;;10.50;;
77012;SDS011;67260;53.130;17.982;2024-01-11T02:35:51;28.80;;;9.20;;
77012;SDS011;67260;53.130;17.982;2024-01-11T02:39:52;25.60;;;8.70;;
77012;SDS011;67260;53.130;17.982;2024-01-11T02:45:07;24.10;;;8.20;;
77012;SDS011;67260;53.130;17.982;2024-01-11T02:55:33;19.80;;;7.00;;
77012;SDS011;67260;53.130;17.982;2024-01-11T02:58:06;20.00;;;7.40;;
77012;SDS011;67260;53.130;17.982;2024-01-11T03:00:55;15.00;;;5.90;;
77012;SDS011;67260;53.130;17.982;2024-01-11T03:03:22;22.30;;;7.10;;
77012;SDS011;67260;53.130;17.982;2024-01-11T03:09:09;19.10;;;6.70;;
77012;SDS011;67260;53.130;17.982;2024-01-11T03:11:52;21.10;;;6.90;;
77012;SDS011;67260;53.130;17.982;2024-01-11T03:14:45;19.50;;;6.60;;
77012;SDS011;67260;53.130;17.982;2024-01-11T03:17:32;22.80;;;7.90;;
77012;SDS011;67260;53.130;17.982;2024-01-11T03:20:00;20.50;;;8.10;;
77012;SDS011;67260;53.130;17.982;2024-01-11T03:22:54;20.10;;;7.30;;
77012;SDS011;67260;53.130;17.982;2024-01-11T03:25:21;19.90;;;7.60;;
77012;SDS011;67260;53.130;17.982;2024-01-11T03:27:47;21.20;;;6.60;;
77012;SDS011;67260;53.130;17.982;2024-01-11T03:30:13;21.30;;;7.70;;
77012;SDS011;67260;53.130;17.982;2024-01-11T03:32:40;23.20;;;7.90;;
77012;SDS011;67260;53.130;17.982;2024-01-11T03:35:07;20.00;;;7.20;;
77012;SDS011;67260;53.130;17.982;2024-01-11T03:37:33;21.20;;;8.20;;
77012;SDS011;67260;53.130;17.982;2024-01-11T03:40:00;23.50;;;8.90;;
77012;SDS011;67260;53.130;17.982;2024-01-11T03:42:26;24.50;;;9.00;;
77012;SDS011;67260;53.130;17.982;2024-01-11T03:44:52;24.70;;;9.30;;
77012;SDS011;67260;53.130;17.982;2024-01-11T03:47:18;23.80;;;9.40;;
77012;SDS011;67260;53.130;17.982;2024-01-11T03:49:45;25.50;;;8.90;;
77012;SDS011;67260;53.130;17.982;2024-01-11T03:52:11;24.80;;;8.50;;
77012;SDS011;67260;53.130;17.982;2024-01-11T03:54:37;24.60;;;8.60;;
77012;SDS011;67260;53.130;17.982;2024-01-11T03:57:03;24.50;;;8.60;;
77012;SDS011;67260;53.130;17.982;2024-01-11T03:59:29;23.00;;;8.20;;
77012;SDS011;67260;53.130;17.982;2024-01-11T04:01:56;21.60;;;8.30;;
77012;SDS011;67260;53.130;17.982;2024-01-11T04:04:24;23.60;;;7.90;;
77012;SDS011;67260;53.130;17.982;2024-01-11T04:06:51;19.60;;;7.60;;
77012;SDS011;67260;53.130;17.982;2024-01-11T04:09:19;25.50;;;8.60;;
77012;SDS011;67260;53.130;17.982;2024-01-11T04:11:46;21.30;;;8.40;;
77012;SDS011;67260;53.130;17.982;2024-01-11T04:14:15;29.10;;;9.40;;
77012;SDS011;67260;53.130;17.982;2024-01-11T04:16:41;39.70;;;12.70;;
77012;SDS011;67260;53.130;17.982;2024-01-11T04:21:34;31.90;;;10.50;;
77012;SDS011;67260;53.130;17.982;2024-01-11T04:24:00;35.10;;;11.40;;
77012;SDS011;67260;53.130;17.982;2024-01-11T04:26:26;49.30;;;14.20;;
77012;SDS011;67260;53.130;17.982;2024-01-11T04:28:52;54.30;;;15.90;;
77012;SDS011;67260;53.130;17.982;2024-01-11T04:31:21;43.70;;;13.60;;
77012;SDS011;67260;53.130;17.982;2024-01-11T04:33:47;40.50;;;13.10;;
77012;SDS011;67260;53.130;17.982;2024-01-11T04:36:13;47.50;;;13.90;;
77012;SDS011;67260;53.130;17.982;2024-01-11T04:38:39;43.50;;;13.60;;
77012;SDS011;67260;53.130;17.982;2024-01-11T04:41:09;60.90;;;18.40;;
77012;SDS011;67260;53.130;17.982;2024-01-11T04:43:37;63.70;;;18.40;;
77012;SDS011;67260;53.130;17.982;2024-01-11T04:46:17;53.70;;;16.70;;
77012;SDS011;67260;53.130;17.982;2024-01-11T04:48:49;50.70;;;15.90;;
77012;SDS011;67260;53.130;17.982;2024-01-11T04:51:16;37.00;;;12.50;;
77012;SDS011;67260;53.130;17.982;2024-01-11T04:53:44;29.60;;;10.90;;
77012;SDS011;67260;53.130;17.982;2024-01-11T04:56:11;33.00;;;12.00;;
77012;SDS011;67260;53.130;17.982;2024-01-11T04:58:40;37.00;;;13.40;;
77012;SDS011;67260;53.130;17.982;2024-01-11T05:01:11;42.00;;;15.50;;
77012;SDS011;67260;53.130;17.982;2024-01-11T05:03:44;44.50;;;16.30;;
77012;SDS011;67260;53.130;17.982;2024-01-11T05:06:17;40.70;;;15.90;;
77012;SDS011;67260;53.130;17.982;2024-01-11T05:08:51;34.90;;;14.10;;
77012;SDS011;67260;53.130;17.982;2024-01-11T05:11:22;32.30;;;12.80;;
77012;SDS011;67260;53.130;17.982;2024-01-11T05:14:10;28.80;;;11.50;;
77012;SDS011;67260;53.130;17.982;2024-01-11T05:16:36;41.30;;;15.40;;
77012;SDS011;67260;53.130;17.982;2024-01-11T05:19:02;45.60;;;16.10;;
77012;SDS011;67260;53.130;17.982;2024-01-11T05:21:28;41.70;;;17.50;;
77012;SDS011;67260;53.130;17.982;2024-01-11T05:23:54;34.80;;;15.20;;
77012;SDS011;67260;53.130;17.982;2024-01-11T05:26:20;29.20;;;13.40;;
77012;SDS011;67260;53.130;17.982;2024-01-11T05:28:46;31.40;;;14.60;;
77012;SDS011;67260;53.130;17.982;2024-01-11T05:31:13;34.90;;;15.10;;
77012;SDS011;67260;53.130;17.982;2024-01-11T05:33:42;31.00;;;14.60;;
77012;SDS011;67260;53.130;17.982;2024-01-11T05:36:09;32.80;;;14.60;;
77012;SDS011;67260;53.130;17.982;2024-01-11T05:38:35;29.50;;;13.10;;
77012;SDS011;67260;53.130;17.982;2024-01-11T05:41:04;23.70;;;10.10;;
77012;SDS011;67260;53.130;17.982;2024-01-11T05:43:30;21.80;;;9.80;;
77012;SDS011;67260;53.130;17.982;2024-01-11T05:45:56;22.40;;;10.00;;
77012;SDS011;67260;53.130;17.982;2024-01-11T05:48:33;21.80;;;9.40;;
77012;SDS011;67260;53.130;17.982;2024-01-11T05:50:59;20.30;;;9.90;;
77012;SDS011;67260;53.130;17.982;2024-01-11T05:53:26;18.80;;;8.60;;
77012;SDS011;67260;53.130;17.982;2024-01-11T05:55:53;23.00;;;10.10;;
77012;SDS011;67260;53.130;17.982;2024-01-11T05:58:19;26.00;;;10.60;;
77012;SDS011;67260;53.130;17.982;2024-01-11T06:03:17;26.50;;;11.00;;
77012;SDS011;67260;53.130;17.982;2024-01-11T06:05:43;26.10;;;11.20;;
77012;SDS011;67260;53.130;17.982;2024-01-11T06:08:10;24.20;;;10.50;;
77012;SDS011;67260;53.130;17.982;2024-01-11T06:10:36;24.30;;;9.70;;
77012;SDS011;67260;53.130;17.982;2024-01-11T06:13:03;26.00;;;10.30;;
77012;SDS011;67260;53.130;17.982;2024-01-11T06:15:29;28.20;;;12.20;;
77012;SDS011;67260;53.130;17.982;2024-01-11T06:17:56;31.30;;;12.90;;
77012;SDS011;67260;53.130;17.982;2024-01-11T06:20:27;33.60;;;13.50;;
77012;SDS011;67260;53.130;17.982;2024-01-11T06:22:53;43.70;;;17.80;;
77012;SDS011;67260;53.130;17.982;2024-01-11T06:25:19;41.50;;;17.70;;
77012;SDS011;67260;53.130;17.982;2024-01-11T06:27:46;39.20;;;17.00;;
77012;SDS011;67260;53.130;17.982;2024-01-11T06:30:13;39.20;;;16.60;;
77012;SDS011;67260;53.130;17.982;2024-01-11T06:32:39;38.20;;;17.80;;
77012;SDS011;67260;53.130;17.982;2024-01-11T06:35:05;34.60;;;15.10;;
77012;SDS011;67260;53.130;17.982;2024-01-11T06:37:35;35.10;;;14.90;;
77012;SDS011;67260;53.130;17.982;2024-01-11T06:40:01;33.40;;;14.40;;
77012;SDS011;67260;53.130;17.982;2024-01-11T06:42:30;30.60;;;12.00;;
77012;SDS011;67260;53.130;17.982;2024-01-11T06:44:56;32.00;;;12.40;;
77012;SDS011;67260;53.130;17.982;2024-01-11T06:47:22;36.40;;;15.80;;
77012;SDS011;67260;53.130;17.982;2024-01-11T06:49:48;34.60;;;14.30;;
77012;SDS011;67260;53.130;17.982;2024-01-11T06:52:14;35.00;;;14.40;;
77012;SDS011;67260;53.130;17.982;2024-01-11T06:54:40;37.40;;;15.60;;
77012;SDS011;67260;53.130;17.982;2024-01-11T06:57:07;31.30;;;14.10;;
77012;SDS011;67260;53.130;17.982;2024-01-11T06:59:33;31.90;;;13.20;;
77012;SDS011;67260;53.130;17.982;2024-01-11T07:01:59;32.40;;;12.90;;
77012;SDS011;67260;53.130;17.982;2024-01-11T07:04:25;31.20;;;12.50;;
77012;SDS011;67260;53.130;17.982;2024-01-11T07:06:51;28.20;;;11.50;;
77012;SDS011;67260;53.130;17.982;2024-01-11T07:09:17;26.80;;;12.10;;
77012;SDS011;67260;53.130;17.982;2024-01-11T07:11:44;26.90;;;11.20;;
77012;SDS011;67260;53.130;17.982;2024-01-11T07:14:10;26.50;;;11.40;;
77012;SDS011;67260;53.130;17.982;2024-01-11T07:16:42;26.40;;;11.70;;
77012;SDS011;67260;53.130;17.982;2024-01-11T07:19:08;24.20;;;10.50;;
77012;SDS011;67260;53.130;17.982;2024-01-11T07:21:37;29.60;;;13.40;;
77012;SDS011;67260;53.130;17.982;2024-01-11T07:24:03;26.00;;;11.40;;
77012;SDS011;67260;53.130;17.982;2024-01-11T07:26:30;25.10;;;11.40;;
77012;SDS011;67260;53.130;17.982;2024-01-11T07:28:57;24.90;;;10.80;;
77012;SDS011;67260;53.130;17.982;2024-01-11T07:31:24;24.30;;;10.30;;
77012;SDS011;67260;53.130;17.982;2024-01-11T07:33:50;26.50;;;11.20;;
77012;SDS011;67260;53.130;17.982;2024-01-11T07:36:19;21.70;;;9.90;;
77012;SDS011;67260;53.130;17.982;2024-01-11T07:38:45;28.70;;;12.30;;
77012;SDS011;67260;53.130;17.982;2024-01-11T07:41:15;26.50;;;11.60;;
77012;SDS011;67260;53.130;17.982;2024-01-11T07:43:41;26.90;;;11.00;;
77012;SDS011;67260;53.130;17.982;2024-01-11T07:46:07;23.70;;;11.20;;
77012;SDS011;67260;53.130;17.982;2024-01-11T07:48:33;25.30;;;12.30;;
77012;SDS011;67260;53.130;17.982;2024-01-11T07:51:01;26.50;;;12.40;;
77012;SDS011;67260;53.130;17.982;2024-01-11T07:53:28;26.60;;;12.10;;
77012;SDS011;67260;53.130;17.982;2024-01-11T07:55:54;24.80;;;12.20;;
77012;SDS011;67260;53.130;17.982;2024-01-11T07:58:20;29.00;;;13.00;;
77012;SDS011;67260;53.130;17.982;2024-01-11T08:00:47;26.00;;;12.30;;
77012;SDS011;67260;53.130;17.982;2024-01-11T08:03:14;30.30;;;12.60;;
77012;SDS011;67260;53.130;17.982;2024-01-11T08:05:41;25.50;;;12.00;;
77012;SDS011;67260;53.130;17.982;2024-01-11T08:08:08;24.20;;;11.50;;
77012;SDS011;67260;53.130;17.982;2024-01-11T08:10:35;22.20;;;10.30;;
77012;SDS011;67260;53.130;17.982;2024-01-11T08:15:30;25.60;;;10.70;;
77012;SDS011;67260;53.130;17.982;2024-01-11T08:17:56;22.30;;;10.40;;
77012;SDS011;67260;53.130;17.982;2024-01-11T08:20:22;23.30;;;10.90;;
77012;SDS011;67260;53.130;17.982;2024-01-11T08:22:48;23.70;;;11.40;;
77012;SDS011;67260;53.130;17.982;2024-01-11T08:25:14;25.10;;;11.10;;
77012;SDS011;67260;53.130;17.982;2024-01-11T08:27:42;24.20;;;10.90;;
77012;SDS011;67260;53.130;17.982;2024-01-11T08:30:09;21.60;;;11.30;;
77012;SDS011;67260;53.130;17.982;2024-01-11T08:32:35;25.20;;;11.80;;
77012;SDS011;67260;53.130;17.982;2024-01-11T08:35:05;27.00;;;11.80;;
77012;SDS011;67260;53.130;17.982;2024-01-11T08:37:32;26.20;;;12.50;;
77012;SDS011;67260;53.130;17.982;2024-01-11T08:39:58;25.80;;;12.20;;
77012;SDS011;67260;53.130;17.982;2024-01-11T08:42:24;26.70;;;12.30;;
77012;SDS011;67260;53.130;17.982;2024-01-11T08:44:50;22.40;;;12.20;;
77012;SDS011;67260;53.130;17.982;2024-01-11T08:47:19;24.00;;;11.40;;
77012;SDS011;67260;53.130;17.982;2024-01-11T08:49:45;25.20;;;12.50;;
77012;SDS011;67260;53.130;17.982;2024-01-11T08:52:11;29.70;;;13.80;;
77012;SDS011;67260;53.130;17.982;2024-01-11T08:54:38;25.40;;;12.50;;
77012;SDS011;67260;53.130;17.982;2024-01-11T08:57:05;35.80;;;15.70;;
77012;SDS011;67260;53.130;17.982;2024-01-11T08:59:33;28.30;;;13.30;;
77012;SDS011;67260;53.130;17.982;2024-01-11T09:01:59;28.30;;;13.50;;
77012;SDS011;67260;53.130;17.982;2024-01-11T09:04:25;26.90;;;12.60;;
77012;SDS011;67260;53.130;17.982;2024-01-11T09:06:54;28.60;;;13.10;;
77012;SDS011;67260;53.130;17.982;2024-01-11T09:09:21;24.50;;;12.10;;
77012;SDS011;67260;53.130;17.982;2024-01-11T09:11:47;24.00;;;12.90;;
77012;SDS011;67260;53.130;17.982;2024-01-11T09:14:13;22.30;;;11.50;;
77012;SDS011;67260;53.130;17.982;2024-01-11T09:16:39;23.90;;;11.90;;
77012;SDS011;67260;53.130;17.982;2024-01-11T09:19:06;25.50;;;12.20;;
77012;SDS011;67260;53.130;17.982;2024-01-11T09:21:32;24.10;;;12.50;;
77012;SDS011;67260;53.130;17.982;2024-01-11T09:23:58;31.30;;;14.60;;
77012;SDS011;67260;53.130;17.982;2024-01-11T09:26:24;33.00;;;14.90;;
77012;SDS011;67260;53.130;17.982;2024-01-11T09:28:50;32.80;;;14.10;;
77012;SDS011;67260;53.130;17.982;2024-01-11T09:31:17;21.60;;;11.00;;
77012;SDS011;67260;53.130;17.982;2024-01-11T09:33:43;27.30;;;12.90;;
77012;SDS011;67260;53.130;17.982;2024-01-11T09:36:14;42.20;;;17.30;;
77012;SDS011;67260;53.130;17.982;2024-01-11T09:38:40;30.40;;;12.60;;
77012;SDS011;67260;53.130;17.982;2024-01-11T09:41:07;29.60;;;12.20;;
77012;SDS011;67260;53.130;17.982;2024-01-11T09:43:35;22.60;;;9.90;;
77012;SDS011;67260;53.130;17.982;2024-01-11T09:46:05;23.70;;;10.90;;
77012;SDS011;67260;53.130;17.982;2024-01-11T09:48:35;22.60;;;11.80;;
77012;SDS011;67260;53.130;17.982;2024-01-11T09:51:03;24.90;;;12.60;;
77012;SDS011;67260;53.130;17.982;2024-01-11T09:53:35;24.60;;;12.60;;
77012;SDS011;67260;53.130;17.982;2024-01-11T09:56:07;21.60;;;10.80;;
77012;SDS011;67260;53.130;17.982;2024-01-11T09:58:36;19.60;;;10.20;;
77012;SDS011;67260;53.130;17.982;2024-01-11T10:01:02;18.90;;;10.10;;
77012;SDS011;67260;53.130;17.982;2024-01-11T10:03:33;19.70;;;10.50;;
77012;SDS011;67260;53.130;17.982;2024-01-11T10:06:00;18.40;;;9.40;;
77012;SDS011;67260;53.130;17.982;2024-01-11T10:08:27;21.10;;;10.60;;
77012;SDS011;67260;53.130;17.982;2024-01-11T10:10:55;18.30;;;9.00;;
77012;SDS011;67260;53.130;17.982;2024-01-11T10:13:27;17.70;;;8.80;;
77012;SDS011;67260;53.130;17.982;2024-01-11T10:16:04;25.60;;;13.00;;
77012;SDS011;67260;53.130;17.982;2024-01-11T10:18:31;19.50;;;9.40;;
77012;SDS011;67260;53.130;17.982;2024-01-11T10:20:58;16.90;;;8.90;;
77012;SDS011;67260;53.130;17.982;2024-01-11T10:23:25;17.60;;;9.10;;
77012;SDS011;67260;53.130;17.982;2024-01-11T10:25:51;15.70;;;8.20;;
77012;SDS011;67260;53.130;17.982;2024-01-11T10:28:17;15.90;;;7.80;;
77012;SDS011;67260;53.130;17.982;2024-01-11T10:30:48;14.50;;;7.30;;
77012;SDS011;67260;53.130;17.982;2024-01-11T10:33:18;19.30;;;8.50;;
77012;SDS011;67260;53.130;17.982;2024-01-11T10:35:45;17.00;;;8.30;;
77012;SDS011;67260;53.130;17.982;2024-01-11T10:38:11;15.20;;;7.20;;
77012;SDS011;67260;53.130;17.982;2024-01-11T10:40:40;12.10;;;7.10;;
77012;SDS011;67260;53.130;17.982;2024-01-11T10:43:08;16.30;;;9.10;;
77012;SDS011;67260;53.130;17.982;2024-01-11T10:45:39;15.30;;;8.20;;
77012;SDS011;67260;53.130;17.982;2024-01-11T10:48:14;14.80;;;8.10;;
77012;SDS011;67260;53.130;17.982;2024-01-11T10:50:44;17.20;;;8.70;;
77012;SDS011;67260;53.130;17.982;2024-01-11T10:55:55;15.70;;;7.90;;
77012;SDS011;67260;53.130;17.982;2024-01-11T10:58:22;15.40;;;8.20;;
77012;SDS011;67260;53.130;17.982;2024-01-11T11:00:53;17.50;;;7.70;;
77012;SDS011;67260;53.130;17.982;2024-01-11T11:03:23;16.40;;;7.90;;
77012;SDS011;67260;53.130;17.982;2024-01-11T11:05:51;17.00;;;8.60;;
77012;SDS011;67260;53.130;17.982;2024-01-11T11:08:19;17.40;;;8.90;;
77012;SDS011;67260;53.130;17.982;2024-01-11T11:10:46;17.00;;;8.00;;
77012;SDS011;67260;53.130;17.982;2024-01-11T11:13:14;21.60;;;9.60;;
77012;SDS011;67260;53.130;17.982;2024-01-11T11:15:42;16.50;;;8.10;;
77012;SDS011;67260;53.130;17.982;2024-01-11T11:18:15;40.70;;;14.50;;
77012;SDS011;67260;53.130;17.982;2024-01-11T11:20:44;24.90;;;10.40;;
77012;SDS011;67260;53.130;17.982;2024-01-11T11:23:14;36.00;;;13.60;;
77012;SDS011;67260;53.130;17.982;2024-01-11T11:25:48;19.60;;;9.60;;
77012;SDS011;67260;53.130;17.982;2024-01-11T11:28:16;19.70;;;9.50;;
77012;SDS011;67260;53.130;17.982;2024-01-11T11:30:49;42.00;;;15.60;;
77012;SDS011;67260;53.130;17.982;2024-01-11T11:33:43;44.60;;;17.80;;
77012;SDS011;67260;53.130;17.982;2024-01-11T11:36:20;41.00;;;20.00;;
77012;SDS011;67260;53.130;17.982;2024-01-11T11:39:18;27.30;;;14.90;;
77012;SDS011;67260;53.130;17.982;2024-01-11T11:41:47;46.40;;;21.30;;
77012;SDS011;67260;53.130;17.982;2024-01-11T11:44:15;40.50;;;18.40;;
77012;SDS011;67260;53.130;17.982;2024-01-11T11:46:47;30.70;;;14.80;;
77012;SDS011;67260;53.130;17.982;2024-01-11T11:49:13;37.30;;;20.90;;
77012;SDS011;67260;53.130;17.982;2024-01-11T11:51:39;37.70;;;21.80;;
77012;SDS011;67260;53.130;17.982;2024-01-11T11:54:09;62.10;;;33.00;;
77012;SDS011;67260;53.130;17.982;2024-01-11T11:56:37;90.50;;;44.60;;
77012;SDS011;67260;53.130;17.982;2024-01-11T11:59:10;111.30;;;45.60;;
77012;SDS011;67260;53.130;17.982;2024-01-11T12:09:49;15.40;;;8.00;;
77012;SDS011;67260;53.130;17.982;2024-01-11T12:12:16;14.60;;;8.70;;
77012;SDS011;67260;53.130;17.982;2024-01-11T12:14:47;20.20;;;9.60;;
77012;SDS011;67260;53.130;17.982;2024-01-11T12:17:15;14.80;;;8.70;;
77012;SDS011;67260;53.130;17.982;2024-01-11T12:19:44;14.00;;;7.50;;
77012;SDS011;67260;53.130;17.982;2024-01-11T12:22:13;13.80;;;8.30;;
77012;SDS011;67260;53.130;17.982;2024-01-11T12:24:39;16.90;;;9.00;;
77012;SDS011;67260;53.130;17.982;2024-01-11T12:27:05;15.20;;;8.90;;
77012;SDS011;67260;53.130;17.982;2024-01-11T12:29:31;17.10;;;8.90;;
77012;SDS011;67260;53.130;17.982;2024-01-11T12:31:58;16.70;;;7.70;;
77012;SDS011;67260;53.130;17.982;2024-01-11T12:37:15;18.40;;;9.40;;
77012;SDS011;67260;53.130;17.982;2024-01-11T12:39:41;15.80;;;7.70;;
77012;SDS011;67260;53.130;17.982;2024-01-11T12:42:09;16.20;;;8.20;;
77012;SDS011;67260;53.130;17.982;2024-01-11T12:44:35;13.80;;;7.10;;
77012;SDS011;67260;53.130;17.982;2024-01-11T12:47:03;12.40;;;6.60;;
77012;SDS011;67260;53.130;17.982;2024-01-11T12:49:43;17.90;;;9.80;;
77012;SDS011;67260;53.130;17.982;2024-01-11T12:52:15;13.60;;;7.00;;
77012;SDS011;67260;53.130;17.982;2024-01-11T12:54:45;10.70;;;4.80;;
77012;SDS011;67260;53.130;17.982;2024-01-11T12:57:20;11.00;;;4.60;;
77012;SDS011;67260;53.130;17.982;2024-01-11T12:59:47;12.30;;;4.30;;
77012;SDS011;67260;53.130;17.982;2024-01-11T13:02:14;8.10;;;4.30;;
77012;SDS011;67260;53.130;17.982;2024-01-11T13:04:43;8.70;;;4.20;;
77012;SDS011;67260;53.130;17.982;2024-01-11T13:07:12;9.90;;;4.70;;
77012;SDS011;67260;53.130;17.982;2024-01-11T13:09:41;10.20;;;5.10;;
77012;SDS011;67260;53.130;17.982;2024-01-11T13:14:34;9.10;;;5.00;;
77012;SDS011;67260;53.130;17.982;2024-01-11T13:17:00;15.60;;;5.00;;
77012;SDS011;67260;53.130;17.982;2024-01-11T13:19:27;11.90;;;5.30;;
77012;SDS011;67260;53.130;17.982;2024-01-11T13:21:53;11.40;;;5.70;;
77012;SDS011;67260;53.130;17.982;2024-01-11T13:24:19;13.80;;;5.70;;
77012;SDS011;67260;53.130;17.982;2024-01-11T13:26:46;10.70;;;5.20;;
77012;SDS011;67260;53.130;17.982;2024-01-11T13:29:12;9.40;;;4.90;;
77012;SDS011;67260;53.130;17.982;2024-01-11T13:31:38;10.20;;;4.50;;
77012;SDS011;67260;53.130;17.982;2024-01-11T13:34:04;9.30;;;4.70;;
77012;SDS011;67260;53.130;17.982;2024-01-11T13:36:30;12.00;;;5.60;;
77012;SDS011;67260;53.130;17.982;2024-01-11T13:38:56;11.20;;;5.40;;
77012;SDS011;67260;53.130;17.982;2024-01-11T13:41:22;12.40;;;5.20;;
77012;SDS011;67260;53.130;17.982;2024-01-11T13:43:48;12.50;;;5.70;;
77012;SDS011;67260;53.130;17.982;2024-01-11T13:46:15;10.20;;;4.90;;
77012;SDS011;67260;53.130;17.982;2024-01-11T13:48:45;11.10;;;5.40;;
77012;SDS011;67260;53.130;17.982;2024-01-11T13:51:13;10.00;;;5.60;;
77012;SDS011;67260;53.130;17.982;2024-01-11T13:53:41;11.40;;;5.10;;
77012;SDS011;67260;53.130;17.982;2024-01-11T13:56:07;11.00;;;4.90;;
77012;SDS011;67260;53.130;17.982;2024-01-11T13:58:33;9.80;;;5.40;;
77012;SDS011;67260;53.130;17.982;2024-01-11T14:00:59;10.00;;;5.10;;
77012;SDS011;67260;53.130;17.982;2024-01-11T14:03:26;11.70;;;5.30;;
77012;SDS011;67260;53.130;17.982;2024-01-11T14:05:52;12.70;;;5.60;;
77012;SDS011;67260;53.130;17.982;2024-01-11T14:08:18;10.30;;;4.70;;
77012;SDS011;67260;53.130;17.982;2024-01-11T14:10:47;10.20;;;5.20;;
77012;SDS011;67260;53.130;17.982;2024-01-11T14:13:14;9.60;;;5.20;;
77012;SDS011;67260;53.130;17.982;2024-01-11T14:15:40;11.00;;;5.50;;
77012;SDS011;67260;53.130;17.982;2024-01-11T14:18:06;9.70;;;5.40;;
77012;SDS011;67260;53.130;17.982;2024-01-11T14:20:37;12.90;;;6.50;;
77012;SDS011;67260;53.130;17.982;2024-01-11T14:26:53;17.30;;;8.30;;
77012;SDS011;67260;53.130;17.982;2024-01-11T14:33:12;17.50;;;8.00;;
77012;SDS011;67260;53.130;17.982;2024-01-11T14:38:55;15.20;;;7.20;;
77012;SDS011;67260;53.130;17.982;2024-01-11T14:41:22;15.70;;;7.80;;
77012;SDS011;67260;53.130;17.982;2024-01-11T14:44:07;20.30;;;8.60;;
77012;SDS011;67260;53.130;17.982;2024-01-11T14:46:39;16.30;;;7.30;;
77012;SDS011;67260;53.130;17.982;2024-01-11T14:49:22;14.70;;;7.90;;
77012;SDS011;67260;53.130;17.982;2024-01-11T14:54:31;19.40;;;8.40;;
77012;SDS011;67260;53.130;17.982;2024-01-11T14:56:57;19.00;;;8.60;;
77012;SDS011;67260;53.130;17.982;2024-01-11T14:59:24;16.20;;;7.50;;
77012;SDS011;67260;53.130;17.982;2024-01-11T15:03:13;24.60;;;10.20;;
77012;SDS011;67260;53.130;17.982;2024-01-11T15:09:41;19.10;;;9.30;;
77012;SDS011;67260;53.130;17.982;2024-01-11T15:12:12;19.30;;;8.80;;
77012;SDS011;67260;53.130;17.982;2024-01-11T15:27:01;14.40;;;6.80;;
77012;SDS011;67260;53.130;17.982;2024-01-11T15:29:28;14.70;;;6.30;;
77012;SDS011;67260;53.130;17.982;2024-01-11T15:33:18;15.60;;;6.40;;
77012;SDS011;67260;53.130;17.982;2024-01-11T15:36:19;17.30;;;7.60;;
77012;SDS011;67260;53.130;17.982;2024-01-11T15:38:49;15.00;;;7.30;;
77012;SDS011;67260;53.130;17.982;2024-01-11T16:07:14;11.40;;;4.70;;
77012;SDS011;67260;53.130;17.982;2024-01-11T16:12:21;11.20;;;4.40;;
77012;SDS011;67260;53.130;17.982;2024-01-11T16:14:51;12.50;;;4.40;;
77012;SDS011;67260;53.130;17.982;2024-01-11T16:17:19;11.30;;;5.30;;